Time;durP1;ratioP1;P1;durP2;ratioP2;P2;SDS_P1;SDS_P2;PMS_P1;PMS_P2;Temp;Humidity;BMP_temperature;BMP_pressure;BME280_temperature;BME280_humidity;BME280_pressure;Samples;Min_cycle;Max_cycle;Signal;HPM_P1;HPM_P2
2023/10/10 00:01:28;;;;;;;0.50;0.50;;;;;;;;;;5084176;28;20509;-79
2023/10/10 00:03:54;;;;;;;0.50;0.50;;;;;;;;;;5083441;28;20032;-77
2023/10/10 00:06:22;;;;;;;0.45;0.45;;;;;;;;;;5082948;28;20027;-77
2023/10/10 00:08:50;;;;;;;0.50;0.50;;;;;;;;;;5083898;28;20019;-80
2023/10/10 00:11:18;;;;;;;0.40;0.40;;;;;;;;;;5082577;28;20120;-79
2023/10/10 00:13:52;;;;;;;0.50;0.50;;;;;;;;;;5082951;28;20063;-78
2023/10/10 00:16:41;;;;;;;0.52;0.52;;;;;;;;;;5102561;28;20016;-79
2023/10/10 00:19:17;;;;;;;0.50;0.50;;;;;;;;;;5101066;28;20059;-78
2023/10/10 00:21:43;;;;;;;0.60;0.60;;;;;;;;;;5084928;28;20024;-78
2023/10/10 00:24:12;;;;;;;0.50;0.50;;;;;;;;;;5085019;28;20028;-79
2023/10/10 00:26:44;;;;;;;0.40;0.40;;;;;;;;;;5086119;28;20020;-80
2023/10/10 00:29:11;;;;;;;0.50;0.50;;;;;;;;;;5084137;28;20077;-79
2023/10/10 00:31:38;;;;;;;0.50;0.50;;;;;;;;;;5083535;28;20123;-79
2023/10/10 00:34:07;;;;;;;0.45;0.45;;;;;;;;;;5082287;28;20063;-77
2023/10/10 00:36:35;;;;;;;0.60;0.60;;;;;;;;;;5084283;28;20045;-79
2023/10/10 00:44:17;;;;;;;0.60;0.60;;;;;;;;;;5099569;28;20070;-78
2023/10/10 00:46:44;;;;;;;0.50;0.50;;;;;;;;;;5080182;28;20028;-77
2023/10/10 00:49:15;;;;;;;0.50;0.50;;;;;;;;;;5079604;28;20020;-80
2023/10/10 00:51:46;;;;;;;0.60;0.60;;;;;;;;;;5080683;28;20027;-79
2023/10/10 00:54:26;;;;;;;0.70;0.70;;;;;;;;;;5080940;28;20369;-79
2023/10/10 00:56:56;;;;;;;0.50;0.50;;;;;;;;;;5082068;28;20355;-79
2023/10/10 00:59:35;;;;;;;0.60;0.60;;;;;;;;;;5080919;28;20051;-78
2023/10/10 01:02:07;;;;;;;0.60;0.60;;;;;;;;;;5080963;28;20078;-78
2023/10/10 01:04:55;;;;;;;0.60;0.60;;;;;;;;;;5081148;28;20036;-78
2023/10/10 01:07:21;;;;;;;0.52;0.52;;;;;;;;;;5082353;28;20089;-79
2023/10/10 01:09:57;;;;;;;0.60;0.60;;;;;;;;;;5081859;28;20490;-78
2023/10/10 01:12:25;;;;;;;0.70;0.70;;;;;;;;;;5082366;28;20059;-77
2023/10/10 01:14:55;;;;;;;0.60;0.60;;;;;;;;;;5081495;28;20032;-79
2023/10/10 01:17:32;;;;;;;0.60;0.60;;;;;;;;;;5083104;28;20024;-78
2023/10/10 01:20:33;;;;;;;0.60;0.60;;;;;;;;;;5081493;28;20023;-79
2023/10/10 01:22:56;;;;;;;0.50;0.50;;;;;;;;;;5099338;28;20112;-78
2023/10/10 01:28:03;;;;;;;0.50;0.50;;;;;;;;;;5101610;28;20069;-78
2023/10/10 01:33:14;;;;;;;0.47;0.47;;;;;;;;;;5100222;28;20031;-78
2023/10/10 01:35:44;;;;;;;0.52;0.52;;;;;;;;;;5082871;28;20023;-79
2023/10/10 01:38:38;;;;;;;0.50;0.50;;;;;;;;;;5082737;28;20016;-78
2023/10/10 01:41:13;;;;;;;0.50;0.50;;;;;;;;;;5083089;28;20050;-79
2023/10/10 01:43:45;;;;;;;0.60;0.60;;;;;;;;;;5083060;28;20071;-78
2023/10/10 01:46:29;;;;;;;0.50;0.50;;;;;;;;;;5083393;28;20020;-78
2023/10/10 01:48:56;;;;;;;0.55;0.55;;;;;;;;;;5082605;28;20028;-79
2023/10/10 01:51:25;;;;;;;0.60;0.60;;;;;;;;;;5083616;28;20644;-78
2023/10/10 01:53:55;;;;;;;0.60;0.60;;;;;;;;;;5083888;28;20039;-78
2023/10/10 01:56:22;;;;;;;0.60;0.60;;;;;;;;;;5083046;28;20021;-78
2023/10/10 01:58:53;;;;;;;0.50;0.50;;;;;;;;;;5087831;28;20024;-79
2023/10/10 02:01:20;;;;;;;0.50;0.50;;;;;;;;;;5088314;28;20103;-79
2023/10/10 02:03:46;;;;;;;0.50;0.50;;;;;;;;;;5089098;28;20028;-79
2023/10/10 02:06:24;;;;;;;0.50;0.50;;;;;;;;;;5088582;28;20028;-78
2023/10/10 02:08:56;;;;;;;0.45;0.45;;;;;;;;;;5089504;28;20073;-79
2023/10/10 02:11:22;;;;;;;0.53;0.53;;;;;;;;;;5088743;28;20024;-78
2023/10/10 02:13:49;;;;;;;0.50;0.50;;;;;;;;;;5088820;28;20062;-79
2023/10/10 02:16:18;;;;;;;0.60;0.60;;;;;;;;;;5088588;28;20032;-80
2023/10/10 02:18:51;;;;;;;0.60;0.60;;;;;;;;;;5089546;28;20083;-79
2023/10/10 02:21:17;;;;;;;0.40;0.40;;;;;;;;;;5090040;28;20035;-79
2023/10/10 02:23:46;;;;;;;0.50;0.50;;;;;;;;;;5088472;28;20032;-79
2023/10/10 02:26:35;;;;;;;0.60;0.60;;;;;;;;;;5089894;28;20028;-79
2023/10/10 02:29:34;;;;;;;0.50;0.50;;;;;;;;;;5088672;28;20043;-79
2023/10/10 02:32:11;;;;;;;0.60;0.60;;;;;;;;;;5091651;28;20396;-81
2023/10/10 02:34:38;;;;;;;0.60;0.60;;;;;;;;;;5091198;28;20027;-79
2023/10/10 02:37:41;;;;;;;0.60;0.60;;;;;;;;;;5088890;28;20020;-80
2023/10/10 02:40:15;;;;;;;0.50;0.50;;;;;;;;;;5106274;28;20025;-80
2023/10/10 02:43:09;;;;;;;0.50;0.50;;;;;;;;;;5091446;28;20040;-80
2023/10/10 02:45:35;;;;;;;0.50;0.50;;;;;;;;;;5087281;28;20078;-79
2023/10/10 02:48:07;;;;;;;0.60;0.60;;;;;;;;;;5087654;28;20020;-77
2023/10/10 02:50:41;;;;;;;0.50;0.50;;;;;;;;;;5088693;28;20027;-79
2023/10/10 02:53:08;;;;;;;0.50;0.50;;;;;;;;;;5087262;28;20020;-79
2023/10/10 02:55:50;;;;;;;0.68;0.60;;;;;;;;;;5086228;28;20024;-78
2023/10/10 02:58:27;;;;;;;0.50;0.50;;;;;;;;;;5086924;28;20513;-78
2023/10/10 03:00:57;;;;;;;0.60;0.60;;;;;;;;;;5086748;28;20550;-79
2023/10/10 03:03:24;;;;;;;0.50;0.50;;;;;;;;;;5087542;28;20020;-79
2023/10/10 03:05:51;;;;;;;0.60;0.60;;;;;;;;;;5086591;28;20046;-79
2023/10/10 03:08:30;;;;;;;0.63;0.63;;;;;;;;;;5086127;28;20020;-79
2023/10/10 03:11:14;;;;;;;0.82;0.70;;;;;;;;;;5086877;28;20020;-79
2023/10/10 03:13:54;;;;;;;0.50;0.50;;;;;;;;;;5106770;28;20020;-78
2023/10/10 03:29:20;;;;;;;0.50;0.50;;;;;;;;;;5105900;28;20372;-80
2023/10/10 03:31:48;;;;;;;0.60;0.60;;;;;;;;;;5087029;28;20016;-79
2023/10/10 03:37:05;;;;;;;0.60;0.60;;;;;;;;;;5105705;28;20054;-79
2023/10/10 03:39:53;;;;;;;0.70;0.70;;;;;;;;;;5087703;28;20028;-79
2023/10/10 05:24:20;;;;;;;0.70;0.70;;;;;;;;;;5056106;28;20044;-80
2023/10/10 05:26:47;;;;;;;0.47;0.47;;;;;;;;;;5084360;28;20052;-82
2023/10/10 05:29:14;;;;;;;0.60;0.60;;;;;;;;;;5102055;28;20051;-80
2023/10/10 05:31:44;;;;;;;0.60;0.60;;;;;;;;;;5085999;28;20047;-79
2023/10/10 05:34:11;;;;;;;0.60;0.60;;;;;;;;;;5089491;28;20020;-81
2023/10/10 05:36:37;;;;;;;0.50;0.50;;;;;;;;;;5109450;28;20020;-79
2023/10/10 05:39:04;;;;;;;0.50;0.50;;;;;;;;;;5107253;28;20016;-80
2023/10/10 05:41:32;;;;;;;0.65;0.63;;;;;;;;;;5086777;28;20024;-81
2023/10/10 05:43:59;;;;;;;0.50;0.50;;;;;;;;;;5086968;28;20118;-80
2023/10/10 05:46:25;;;;;;;0.60;0.60;;;;;;;;;;5087047;28;20020;-80
2023/10/10 05:48:52;;;;;;;0.60;0.60;;;;;;;;;;5088022;28;20020;-79
2023/10/10 05:51:18;;;;;;;0.50;0.50;;;;;;;;;;5088258;28;20387;-81
2023/10/10 05:53:46;;;;;;;0.70;0.70;;;;;;;;;;5106503;28;20035;-78
2023/10/10 05:56:18;;;;;;;0.60;0.60;;;;;;;;;;5089841;28;20509;-80
2023/10/10 05:58:46;;;;;;;0.50;0.50;;;;;;;;;;5088166;28;20024;-80
2023/10/10 06:01:13;;;;;;;0.50;0.50;;;;;;;;;;5089021;28;20028;-79
2023/10/10 06:03:41;;;;;;;0.60;0.60;;;;;;;;;;5089792;28;20027;-79
2023/10/10 06:06:11;;;;;;;0.60;0.60;;;;;;;;;;5090153;28;20024;-80
2023/10/10 06:08:38;;;;;;;0.60;0.60;;;;;;;;;;5090101;28;20119;-78
2023/10/10 06:11:06;;;;;;;0.60;0.60;;;;;;;;;;5091757;28;20057;-80
2023/10/10 06:13:38;;;;;;;0.65;0.60;;;;;;;;;;5108759;28;20024;-80
2023/10/10 06:16:08;;;;;;;0.50;0.50;;;;;;;;;;5090398;28;20020;-80
2023/10/10 06:18:34;;;;;;;0.52;0.52;;;;;;;;;;5090951;28;20078;-80
2023/10/10 06:21:02;;;;;;;0.60;0.60;;;;;;;;;;5089483;28;20039;-82
2023/10/10 06:23:32;;;;;;;0.60;0.60;;;;;;;;;;5088780;28;20027;-82
2023/10/10 06:25:58;;;;;;;0.60;0.60;;;;;;;;;;5088787;28;20028;-81
2023/10/10 06:28:28;;;;;;;0.60;0.60;;;;;;;;;;5089671;28;20027;-82
2023/10/10 06:30:55;;;;;;;0.50;0.50;;;;;;;;;;5091271;28;20087;-83
2023/10/10 06:33:28;;;;;;;0.68;0.68;;;;;;;;;;5094230;28;20046;-81
2023/10/10 06:41:41;;;;;;;0.40;0.40;;;;;;;;;;5106883;28;20027;-81
2023/10/10 06:44:13;;;;;;;0.50;0.50;;;;;;;;;;5088209;28;20032;-80
2023/10/10 06:46:40;;;;;;;0.70;0.70;;;;;;;;;;5089204;28;20028;-81
2023/10/10 06:49:06;;;;;;;0.60;0.60;;;;;;;;;;5090205;28;20020;-82
2023/10/10 06:51:39;;;;;;;0.60;0.60;;;;;;;;;;5087285;28;20028;-81
2023/10/10 06:54:09;;;;;;;0.50;0.50;;;;;;;;;;5087389;28;20024;-79
2023/10/10 06:56:53;;;;;;;0.50;0.50;;;;;;;;;;5087226;28;20024;-79
2023/10/10 06:59:25;;;;;;;0.50;0.50;;;;;;;;;;5087769;28;20103;-81
2023/10/10 07:01:51;;;;;;;0.60;0.60;;;;;;;;;;5088623;28;20027;-81
2023/10/10 07:04:19;;;;;;;0.52;0.52;;;;;;;;;;5089114;28;20032;-81
2023/10/10 07:06:47;;;;;;;0.60;0.60;;;;;;;;;;5088281;28;20024;-80
2023/10/10 07:09:29;;;;;;;0.60;0.60;;;;;;;;;;5088286;28;20480;-82
2023/10/10 07:12:10;;;;;;;0.50;0.50;;;;;;;;;;5091077;28;20028;-82
2023/10/10 07:14:40;;;;;;;0.60;0.60;;;;;;;;;;5092066;28;20028;-80
2023/10/10 07:17:11;;;;;;;0.60;0.60;;;;;;;;;;5089316;28;20527;-81
2023/10/10 07:19:54;;;;;;;0.70;0.70;;;;;;;;;;5085782;28;20466;-81
2023/10/10 07:22:21;;;;;;;0.50;0.50;;;;;;;;;;5084960;28;20028;-82
2023/10/10 07:25:06;;;;;;;0.60;0.60;;;;;;;;;;5103434;28;20035;-80
2023/10/10 07:27:32;;;;;;;0.50;0.50;;;;;;;;;;5081497;28;20105;-80
2023/10/10 07:29:58;;;;;;;0.50;0.50;;;;;;;;;;5070609;28;20024;-84
2023/10/10 07:32:31;;;;;;;0.50;0.50;;;;;;;;;;5082404;28;20039;-81
2023/10/10 07:34:58;;;;;;;0.50;0.50;;;;;;;;;;5064858;28;20483;-81
2023/10/10 07:37:29;;;;;;;0.50;0.50;;;;;;;;;;5073327;28;20028;-78
2023/10/10 07:39:55;;;;;;;0.50;0.50;;;;;;;;;;5069747;28;20025;-81
2023/10/10 07:42:27;;;;;;;0.52;0.52;;;;;;;;;;5081681;28;20048;-81
2023/10/10 07:44:54;;;;;;;0.60;0.60;;;;;;;;;;5063079;28;20101;-80
2023/10/10 07:47:25;;;;;;;0.50;0.50;;;;;;;;;;5059328;28;20051;-80
2023/10/10 07:50:08;;;;;;;0.60;0.60;;;;;;;;;;5072559;28;20020;-82
2023/10/10 07:52:35;;;;;;;;;;;;;;;;;;5060595;28;20028;-79
2023/10/10 07:55:04;;;;;;;0.60;0.60;;;;;;;;;;5059677;28;19908;-79
2023/10/10 07:57:55;;;;;;;0.50;0.50;;;;;;;;;;5060085;28;20487;-78
2023/10/10 08:00:17;;;;;;;0.50;0.50;;;;;;;;;;5080264;28;20032;-82
2023/10/10 08:02:49;;;;;;;0.55;0.55;;;;;;;;;;5081684;28;20028;-82
2023/10/10 08:05:19;;;;;;;0.50;0.50;;;;;;;;;;5080552;28;20081;-81
2023/10/10 08:07:46;;;;;;;0.60;0.60;;;;;;;;;;5081455;28;20031;-81
2023/10/10 08:13:00;;;;;;;0.52;0.52;;;;;;;;;;5099570;28;20039;-83
2023/10/10 08:15:26;;;;;;;0.50;0.50;;;;;;;;;;5081256;28;20031;-84
2023/10/10 08:17:58;;;;;;;0.50;0.50;;;;;;;;;;5064557;28;20035;-82
2023/10/10 08:20:34;;;;;;;0.50;0.50;;;;;;;;;;5081464;28;20043;-81
2023/10/10 08:23:01;;;;;;;0.50;0.50;;;;;;;;;;5082385;28;20024;-82
2023/10/10 08:25:28;;;;;;;0.50;0.50;;;;;;;;;;5082629;28;20032;-81
2023/10/10 08:28:00;;;;;;;0.50;0.50;;;;;;;;;;5081993;28;20028;-79
2023/10/10 08:30:27;;;;;;;0.47;0.47;;;;;;;;;;5083027;28;20048;-81
2023/10/10 08:32:54;;;;;;;0.40;0.40;;;;;;;;;;5079661;28;20031;-81
2023/10/10 08:35:22;;;;;;;0.50;0.50;;;;;;;;;;5080547;28;20024;-81
2023/10/10 08:37:49;;;;;;;0.43;0.43;;;;;;;;;;5081310;28;20063;-80
2023/10/10 08:40:21;;;;;;;0.50;0.50;;;;;;;;;;5088330;28;20024;-80
2023/10/10 08:42:51;;;;;;;0.40;0.40;;;;;;;;;;5080939;28;20072;-80
2023/10/10 08:45:25;;;;;;;0.50;0.50;;;;;;;;;;5083784;28;20032;-82
2023/10/10 08:48:04;;;;;;;0.45;0.45;;;;;;;;;;5065082;28;20028;-81
2023/10/10 08:50:34;;;;;;;0.50;0.50;;;;;;;;;;5082545;28;20017;-80
2023/10/10 08:53:20;;;;;;;0.50;0.50;;;;;;;;;;5082349;28;20048;-88
2023/10/10 08:55:56;;;;;;;0.50;0.50;;;;;;;;;;5089161;28;20029;-80
2023/10/10 08:58:22;;;;;;;0.50;0.50;;;;;;;;;;5089949;28;20040;-82
2023/10/10 09:00:49;;;;;;;0.43;0.43;;;;;;;;;;5089294;28;20028;-79
2023/10/10 09:03:15;;;;;;;0.40;0.40;;;;;;;;;;5087188;28;20151;-79
2023/10/10 09:05:41;;;;;;;0.45;0.45;;;;;;;;;;5083147;28;20028;-79
2023/10/10 09:08:17;;;;;;;0.40;0.40;;;;;;;;;;5087058;28;20039;-80
2023/10/10 09:10:43;;;;;;;0.40;0.40;;;;;;;;;;5080008;28;20119;-80
2023/10/10 09:13:10;;;;;;;0.40;0.40;;;;;;;;;;5076287;28;20052;-81
2023/10/10 09:15:36;;;;;;;0.50;0.50;;;;;;;;;;5082208;28;20025;-79
2023/10/10 09:18:12;;;;;;;0.40;0.40;;;;;;;;;;5081565;28;20056;-79
2023/10/10 09:20:39;;;;;;;0.45;0.45;;;;;;;;;;5083430;28;20384;-79
2023/10/10 09:23:21;;;;;;;0.40;0.40;;;;;;;;;;5078020;28;20021;-80
2023/10/10 09:25:57;;;;;;;0.40;0.40;;;;;;;;;;5079073;28;20364;-78
2023/10/10 09:28:36;;;;;;;0.40;0.40;;;;;;;;;;5087300;28;20040;-79
2023/10/10 09:31:12;;;;;;;0.40;0.40;;;;;;;;;;5078105;28;20033;-79
2023/10/10 09:33:45;;;;;;;0.40;0.40;;;;;;;;;;5074323;28;20036;-79
2023/10/10 09:36:26;;;;;;;0.50;0.50;;;;;;;;;;5076264;28;20031;-79
2023/10/10 09:39:08;;;;;;;0.40;0.40;;;;;;;;;;5079624;28;20043;-79
2023/10/10 09:57:42;;;;;;;0.40;0.40;;;;;;;;;;5073623;28;20036;-81
2023/10/10 10:00:18;;;;;;;0.40;0.40;;;;;;;;;;5056144;28;20028;-82
2023/10/10 10:02:49;;;;;;;0.57;0.57;;;;;;;;;;5055775;28;20029;-82
2023/10/10 10:05:18;;;;;;;0.40;0.40;;;;;;;;;;5055559;28;20066;-79
2023/10/10 10:07:57;;;;;;;0.40;0.40;;;;;;;;;;5055807;28;20028;-82
2023/10/10 10:10:33;;;;;;;0.30;0.30;;;;;;;;;;5056278;28;20372;-82
2023/10/10 10:13:13;;;;;;;0.40;0.40;;;;;;;;;;5055492;28;20024;-81
2023/10/10 10:15:48;;;;;;;0.30;0.30;;;;;;;;;;5055668;28;20384;-82
2023/10/10 10:18:28;;;;;;;0.40;0.40;;;;;;;;;;5084083;28;20016;-83
2023/10/10 10:23:45;;;;;;;0.30;0.30;;;;;;;;;;5097855;28;20029;-86
2023/10/10 10:26:41;;;;;;;0.40;0.40;;;;;;;;;;5079450;28;20032;-83
2023/10/10 10:29:00;;;;;;;0.32;0.32;;;;;;;;;;5096293;28;20024;-83
2023/10/10 10:31:34;;;;;;;0.30;0.30;;;;;;;;;;5080460;28;20027;-82
2023/10/10 10:34:24;;;;;;;0.40;0.40;;;;;;;;;;5079782;28;20024;-85
2023/10/10 10:37:12;;;;;;;0.30;0.30;;;;;;;;;;5079224;28;20020;-82
2023/10/10 10:40:00;;;;;;;0.40;0.40;;;;;;;;;;5079902;28;20031;-83
2023/10/10 10:42:27;;;;;;;0.40;0.40;;;;;;;;;;5079472;28;20048;-84
2023/10/10 10:44:55;;;;;;;0.40;0.40;;;;;;;;;;5079439;28;20028;-81
2023/10/10 10:47:40;;;;;;;0.40;0.40;;;;;;;;;;5079248;28;20027;-83
2023/10/10 10:50:17;;;;;;;2.20;0.50;;;;;;;;;;5079618;28;20111;-83
2023/10/10 10:52:48;;;;;;;0.40;0.40;;;;;;;;;;5080033;28;20090;-84
2023/10/10 10:55:23;;;;;;;0.45;0.45;;;;;;;;;;5079960;28;20024;-82
2023/10/10 10:58:05;;;;;;;0.40;0.40;;;;;;;;;;5080272;28;20047;-82
2023/10/10 11:03:35;;;;;;;0.35;0.35;;;;;;;;;;5097132;28;20055;-83
2023/10/10 11:06:06;;;;;;;0.40;0.40;;;;;;;;;;5078733;28;20053;-82
2023/10/10 11:14:10;;;;;;;0.38;0.38;;;;;;;;;;5096719;28;20089;-85
2023/10/10 11:16:44;;;;;;;;;;;;;;;;;;5078963;28;20024;-83
2023/10/10 11:21:50;;;;;;;0.40;0.40;;;;;;;;;;5096732;28;20064;-84
2023/10/10 11:24:35;;;;;;;0.30;0.30;;;;;;;;;;5078425;28;20124;-84
2023/10/10 11:29:45;;;;;;;0.40;0.40;;;;;;;;;;5096525;28;20539;-84
2023/10/10 11:32:15;;;;;;;0.40;0.40;;;;;;;;;;5078219;28;20016;-84
2023/10/10 11:34:42;;;;;;;0.38;0.38;;;;;;;;;;5078377;28;20110;-83
2023/10/10 11:37:23;;;;;;;0.40;0.40;;;;;;;;;;5078435;28;20490;-83
2023/10/10 11:39:58;;;;;;;0.30;0.30;;;;;;;;;;5081627;28;20073;-84
2023/10/10 11:42:34;;;;;;;0.40;0.40;;;;;;;;;;5080254;28;20048;-84
2023/10/10 11:45:01;;;;;;;0.40;0.40;;;;;;;;;;5085999;28;20047;-83
2023/10/10 11:47:28;;;;;;;0.40;0.40;;;;;;;;;;5075159;28;20065;-85
2023/10/10 11:50:07;;;;;;;0.30;0.30;;;;;;;;;;5074868;28;20376;-85
2023/10/10 11:52:34;;;;;;;0.30;0.30;;;;;;;;;;5074778;28;20112;-86
2023/10/10 11:55:00;;;;;;;0.30;0.30;;;;;;;;;;5074676;28;20024;-85
2023/10/10 11:57:29;;;;;;;0.30;0.30;;;;;;;;;;5075769;28;20124;-86
2023/10/10 11:59:58;;;;;;;0.38;0.38;;;;;;;;;;5074735;28;20023;-83
2023/10/10 12:02:39;;;;;;;0.32;0.32;;;;;;;;;;5074883;28;20052;-84
2023/10/10 12:05:36;;;;;;;0.30;0.30;;;;;;;;;;5074853;28;20028;-84
2023/10/10 12:08:05;;;;;;;0.30;0.30;;;;;;;;;;5075687;28;20472;-85
2023/10/10 12:10:52;;;;;;;0.30;0.30;;;;;;;;;;5075917;28;20023;-84
2023/10/10 12:15:57;;;;;;;0.40;0.40;;;;;;;;;;5075656;28;20036;-86
2023/10/10 12:18:30;;;;;;;0.40;0.40;;;640.10;2150.40;;;;;;5074113;28;20025;-87
2023/10/10 12:21:03;;;;;;;0.40;0.40;;;640.10;2124.80;;;;;;5075016;28;20115;-85
2023/10/10 12:23:34;;;;;;;0.30;0.30;;;640.10;2150.40;;;;;;5074941;28;20025;-83
2023/10/10 12:26:00;;;;;;;0.30;0.30;;;640.40;2150.40;;;;;;5075633;28;20029;-85
2023/10/10 12:28:26;;;;;;;0.40;0.40;;;640.60;2150.40;;;;;;5074488;28;20036;-82
2023/10/10 12:31:00;;;;;;;0.30;0.30;;;640.70;2124.80;;;;;;5090563;28;20024;-84
2023/10/10 12:33:27;;;;;;;0.30;0.30;;;640.40;2124.80;;;;;;5091109;28;20097;-84
2023/10/10 12:35:53;;;;;;;0.30;0.30;;;640.60;2099.20;;;;;;5091196;28;20029;-85
2023/10/10 12:38:23;;;;;;;0.30;0.30;;;;;;;;;;5092427;28;20025;-81
2023/10/10 12:40:49;;;;;;;0.47;0.47;;;;;;;;;;5089926;28;20021;-80
2023/10/10 12:43:15;;;;;;;0.30;0.30;;;;;;;;;;5079244;28;20071;-84
2023/10/10 12:45:41;;;;;;;0.40;0.40;;;;;;;;;;5074241;28;20028;-84
2023/10/10 12:48:13;;;;;;;0.30;0.30;;;;;;;;;;5074464;28;20025;-85
2023/10/10 12:50:44;;;;;;;0.22;0.22;;;;;;;;;;5074558;28;20369;-84
2023/10/10 12:53:15;;;;;;;0.30;0.30;;;;;;;;;;5073045;28;20494;-82
2023/10/10 12:58:28;;;;;;;0.30;0.30;;;640.50;2022.40;;;;;;5074789;28;20067;-83
2023/10/10 13:00:54;;;;;;;0.20;0.20;;;640.40;2048.00;;;;;;5072942;28;20031;-83
2023/10/10 13:03:27;;;;;;;0.30;0.30;;;640.20;2048.00;;;;;;5073943;28;20024;-84
2023/10/10 13:06:00;;;;;;;0.30;0.30;;;640.40;2022.40;;;;;;5073344;28;20098;-85
2023/10/10 13:08:55;;;;;;;0.20;0.20;;;640.50;1996.80;;;;;;5073272;28;20036;-85
2023/10/10 13:12:06;;;;;;;0.30;0.30;;;640.40;1996.80;;;;;;5073317;28;20056;-83
2023/10/10 13:14:15;;;;;;;0.30;0.30;;;640.20;2022.40;;;;;;5062480;28;20040;-82
2023/10/10 13:19:14;;;;;;;0.30;0.30;;;640.40;2022.40;;;;;;5054342;28;20036;-82
2023/10/10 13:21:42;;;;;;;0.20;0.20;;;640.50;2022.40;;;;;;5052781;28;20021;-83
2023/10/10 13:24:11;;;;;;;0.30;0.30;;;640.90;1996.80;;;;;;5052419;28;20048;-82
2023/10/10 13:26:40;;;;;;;0.20;0.20;;;640.60;1996.80;;;;;;5052588;28;20056;-83
2023/10/10 13:29:09;;;;;;;0.30;0.30;;;640.50;2048.00;;;;;;5052474;28;20025;-82
2023/10/10 13:31:37;;;;;;;0.30;0.30;;;640.10;2073.60;;;;;;5052044;28;20025;-83
2023/10/10 13:34:04;;;;;;;2.40;0.40;;;640.20;2073.60;;;;;;5053725;28;20036;-84
2023/10/10 13:36:32;;;;;;;0.20;0.20;;;640.10;2099.20;;;;;;5052612;28;20021;-83
2023/10/10 13:38:59;;;;;;;0.30;0.30;;;640.20;2099.20;;;;;;5052259;28;20022;-82
2023/10/10 13:41:29;;;;;;;0.30;0.30;;;615.30;2099.20;;;;;;5052883;28;20067;-81
2023/10/10 13:44:03;;;;;;;0.30;0.30;;;615.00;2124.80;;;;;;5056148;28;20035;-83
2023/10/10 13:46:37;;;;;;;0.30;0.30;;;615.00;2124.80;;;;;;5073648;28;20048;-83
2023/10/10 13:49:04;;;;;;;0.30;0.30;;;614.90;2150.40;;;;;;5060724;28;20119;-84
2023/10/10 13:51:39;;;;;;;0.30;0.30;;;615.30;2124.80;;;;;;5057543;28;20423;-81
2023/10/10 13:54:05;;;;;;;0.30;0.30;;;615.10;2099.20;;;;;;5057472;28;20028;-83
2023/10/10 13:56:31;;;;;;;0.25;0.25;;;615.20;2099.20;;;;;;5060700;28;20131;-83
2023/10/10 13:59:00;;;;;;;0.30;0.30;;;615.20;2073.60;;;;;;5062936;28;20473;-83
2023/10/10 14:01:29;;;;;;;0.75;0.75;;;615.00;2124.80;;;;;;5060923;28;20028;-82
2023/10/10 14:04:01;;;;;;;0.30;0.30;;;614.90;2099.20;;;;;;5059740;28;20033;-82
2023/10/10 14:06:33;;;;;;;0.20;0.20;;;614.80;2099.20;;;;;;5059215;28;20036;-80
2023/10/10 14:09:00;;;;;;;0.30;0.30;;;614.80;2099.20;;;;;;5064285;28;20024;-80
2023/10/10 14:11:26;;;;;;;0.30;0.30;;;614.60;2099.20;;;;;;5079216;28;20460;-80
2023/10/10 14:13:53;;;;;;;0.30;0.30;;;614.50;2099.20;;;;;;5078852;28;20472;-82
2023/10/10 14:16:21;;;;;;;0.30;0.30;;;614.40;2099.20;;;;;;5097456;28;20031;-80
2023/10/10 14:18:51;;;;;;;0.30;0.30;;;589.60;2099.20;;;;;;5079067;28;20077;-81
2023/10/10 14:21:28;;;;;;;0.30;0.30;;;589.50;2099.20;;;;;;5079030;28;20425;-81
2023/10/10 14:24:04;;;;;;;0.30;0.30;;;589.50;2124.80;;;;;;5097162;28;20025;-82
2023/10/10 14:26:33;;;;;;;1.02;1.02;;;589.50;2150.40;;;;;;5079235;28;20039;-82
2023/10/10 14:29:04;;;;;;;0.30;0.30;;;589.20;2150.40;;;;;;5078513;28;20024;-82
2023/10/10 14:31:33;;;;;;;0.30;0.30;;;589.50;2176.00;;;;;;5079138;28;20038;-82
2023/10/10 14:34:01;;;;;;;0.30;0.30;;;589.20;2201.60;;;;;;5072004;28;20162;-83
2023/10/10 14:36:27;;;;;;;0.30;0.30;;;589.20;2201.60;;;;;;5096515;28;20491;-83
2023/10/10 14:38:53;;;;;;;0.30;0.30;;;564.10;2227.20;;;;;;5079212;28;20055;-82
2023/10/10 14:41:23;;;;;;;0.30;0.30;;;589.10;2227.20;;;;;;5097568;28;20440;-83
2023/10/10 14:43:54;;;;;;;0.30;0.30;;;589.10;2227.20;;;;;;5078274;28;20105;-84
2023/10/10 14:46:40;;;;;;;0.30;0.30;;;589.10;2227.20;;;;;;5078549;28;20055;-83
2023/10/10 14:49:16;;;;;;;0.30;0.30;;;563.70;2252.80;;;;;;5078203;28;20027;-83
2023/10/10 14:51:48;;;;;;;0.30;0.30;;;588.90;2252.80;;;;;;5078446;28;20031;-84
2023/10/10 14:54:17;;;;;;;0.30;0.30;;;588.90;2252.80;;;;;;5078637;28;20036;-85
2023/10/10 14:56:50;;;;;;;0.30;0.30;;;588.80;2252.80;;;;;;5078018;28;20094;-85
2023/10/10 14:59:25;;;;;;;0.40;0.40;;;564.10;2278.40;;;;;;5096425;28;20020;-83
2023/10/10 15:01:52;;;;;;;0.38;0.38;;;;;;;;;;5078468;28;20028;-82
2023/10/10 15:04:22;;;;;;;0.30;0.30;;;;;;;;;;5078011;28;20024;-85
2023/10/10 15:06:53;;;;;;;0.32;0.32;;;;;;;;;;5077423;28;20029;-82
2023/10/10 15:09:20;;;;;;;0.30;0.30;;;;;;;;;;5078314;28;20016;-83
2023/10/10 15:11:47;;;;;;;0.38;0.38;;;588.80;2278.40;;;;;;5078122;28;20115;-83
2023/10/10 15:14:14;;;;;;;0.35;0.35;;;564.00;2304.00;;;;;;5078181;28;20532;-83
2023/10/10 15:16:40;;;;;;;0.30;0.30;;;563.90;2304.00;;;;;;5077834;28;20023;-84
2023/10/10 15:19:07;;;;;;;0.30;0.30;;;;;;;;;;5096577;28;20056;-83
2023/10/10 15:21:37;;;;;;;0.40;0.40;;;563.90;2304.00;;;;;;5078205;28;20121;-85
2023/10/10 15:24:08;;;;;;;0.40;0.40;;;563.70;2329.60;;;;;;5078464;28;20031;-84
2023/10/10 15:26:35;;;;;;;0.30;0.30;;;;;;;;;;5077445;28;20463;-82
2023/10/10 15:29:03;;;;;;;0.30;0.30;;;;;;;;;;5077410;28;20055;-80
2023/10/10 15:31:33;;;;;;;0.30;0.30;;;;;;;;;;5077563;28;20486;-84
2023/10/10 15:33:59;;;;;;;0.30;0.30;;;;;;;;;;5077864;28;20515;-81
2023/10/10 15:36:30;;;;;;;0.32;0.32;;;;;;;;;;5095808;28;20020;-81
2023/10/10 15:39:06;;;;;;;0.30;0.30;;;563.60;2329.60;;;;;;5077624;28;20024;-82
2023/10/10 15:41:34;;;;;;;0.38;0.38;;;;;;;;;;5077197;28;20066;-82
2023/10/10 15:44:02;;;;;;;2.40;0.50;;;;;;;;;;5077520;28;20066;-80
2023/10/10 15:46:29;;;;;;;0.30;0.30;;;;;;;;;;5076959;28;20095;-82
2023/10/10 15:48:56;;;;;;;0.30;0.30;;;;;;;;;;5077059;28;20033;-82
2023/10/10 15:51:22;;;;;;;0.38;0.38;;;;;;;;;;5077676;28;20531;-80
2023/10/10 15:53:49;;;;;;;0.30;0.30;;;;;;;;;;5076841;28;20475;-77
2023/10/10 15:56:17;;;;;;;0.30;0.30;;;;;;;;;;5094885;28;20452;-79
2023/10/10 15:58:52;;;;;;;0.40;0.40;;;;;;;;;;5094710;28;20208;-80
2023/10/10 16:01:28;;;;;;;0.40;0.40;;;;;;;;;;5076878;28;20016;-79
2023/10/10 16:04:05;;;;;;;0.40;0.40;;;;;;;;;;5076754;28;20072;-80
2023/10/10 16:06:33;;;;;;;0.30;0.30;;;;;;;;;;5076817;28;20028;-79
2023/10/10 16:09:07;;;;;;;0.40;0.40;;;;;;;;;;5077923;28;20027;-80
2023/10/10 16:11:34;;;;;;;0.40;0.40;;;538.10;2406.40;;;;;;5078352;28;20039;-80
2023/10/10 16:14:13;;;;;;;0.40;0.40;;;537.90;2406.40;;;;;;5084237;28;20463;-82
2023/10/10 16:16:46;;;;;;;0.30;0.30;;;537.80;2406.40;;;;;;5104700;28;20020;-77
2023/10/10 16:19:29;;;;;;;0.50;0.50;;;537.70;2406.40;;;;;;5077694;28;20031;-80
2023/10/10 16:21:55;;;;;;;0.40;0.40;;;537.70;2406.40;;;;;;5078108;28;20024;-82
2023/10/10 16:24:24;;;;;;;0.40;0.40;;;;;;;;;;5078680;28;20034;-77
2023/10/10 16:26:58;;;;;;;0.40;0.40;;;;;;;;;;5079850;28;20402;-79
2023/10/10 16:29:25;;;;;;;0.40;0.40;;;;;;;;;;5081990;28;20020;-79
2023/10/10 16:31:53;;;;;;;0.30;0.30;;;;;;;;;;5088919;28;20023;-78
2023/10/10 16:34:19;;;;;;;0.40;0.40;;;;;;;;;;5090651;28;20035;-78
2023/10/10 16:36:46;;;;;;;0.40;0.40;;;;;;;;;;5086183;28;20024;-78
2023/10/10 16:39:13;;;;;;;0.40;0.40;;;;;;;;;;5083845;28;20020;-79
2023/10/10 16:41:40;;;;;;;0.40;0.40;;;;;;;;;;5085405;28;20028;-79
2023/10/10 16:44:11;;;;;;;0.40;0.40;;;;;;;;;;5082071;28;20028;-77
2023/10/10 16:46:38;;;;;;;;;;;;;;;;;;5084121;28;20070;-79
2023/10/10 16:49:08;;;;;;;0.80;0.80;;;;;;;;;;5083654;28;20374;-78
2023/10/10 16:51:35;;;;;;;0.40;0.40;;;;;;;;;;5087045;28;20087;-78
2023/10/10 16:54:06;;;;;;;0.80;0.80;;;;;;;;;;5091940;28;20452;-79
2023/10/10 16:56:34;;;;;;;0.50;0.50;;;;;;;;;;5088249;28;20107;-78
2023/10/10 16:59:00;;;;;;;0.50;0.50;;;;;;;;;;5089232;28;20097;-78
2023/10/10 17:01:28;;;;;;;0.40;0.40;;;;;;;;;;5088925;28;20020;-78
2023/10/10 17:03:54;;;;;;;0.40;0.40;;;;;;;;;;5088312;28;20027;-79
2023/10/10 17:06:26;;;;;;;0.68;0.68;;;;;;;;;;5088405;28;20028;-78
2023/10/10 17:08:59;;;;;;;0.40;0.40;;;;;;;;;;5087755;28;20028;-78
2023/10/10 17:11:25;;;;;;;;;;;;;;;;;;5090434;28;20028;-79
2023/10/10 17:13:52;;;;;;;0.50;0.50;;;;;;;;;;5085360;28;19904;-81
2023/10/10 17:16:29;;;;;;;0.40;0.40;;;;;;;;;;5102808;28;20076;-81
2023/10/10 17:18:57;;;;;;;0.52;0.52;;;;;;;;;;5084728;28;20050;-78
2023/10/10 17:21:26;;;;;;;0.40;0.40;;;;;;;;;;5086931;28;20028;-78
2023/10/10 17:23:54;;;;;;;0.40;0.40;;;;;;;;;;5088373;28;20087;-78
2023/10/10 17:26:21;;;;;;;0.40;0.40;;;;;;;;;;5087420;28;20123;-78
2023/10/10 17:28:52;;;;;;;0.55;0.55;;;;;;;;;;5084090;28;20031;-78
2023/10/10 17:31:24;;;;;;;0.40;0.40;;;;;;;;;;5090224;28;20020;-78
2023/10/10 17:33:54;;;;;;;0.40;0.40;;;;;;;;;;5087834;28;20023;-78